ASL77N LMML-LYBE
Flight info
| Callsign | ASL77N |
|---|---|
| Flight time | 1h 42m |
| Altitude | 36000 |
| Route | GZO P623 OLLEK DCT ARFOL DCT ROMSU DCT KUTID DCT XOLTA/N0440F370 DCT ORVAT DCT SOMUN L5 ENUPU |
| Aircraft | A320/M-SDE3FGHIRWY/LB1 |
Departure
| Time | 2026-04-27 14:08 |
|---|---|
| Airport | Malta International Airport (LMML) |
Arrival
| Time | 2026-04-27 15:50 |
|---|---|
| Airport | Belgrade Nikola Tesla Airport (LYBE) |
| Time | Latitude | Longitude | Altitude | Speed | Heading |
|---|---|---|---|---|---|
| 2026-04-27 13:39 | 35.84859 | 14.49455 | 259 ft | 0 kts | 360° |
| 2026-04-27 13:56 | 35.84841 | 14.49455 | 259 ft | 3 kts | 360° |
| 2026-04-27 13:56 | 35.84820 | 14.49456 | 259 ft | 3 kts | 360° |
| 2026-04-27 13:56 | 35.84799 | 14.49456 | 259 ft | 3 kts | 360° |
| 2026-04-27 13:56 | 35.84780 | 14.49459 | 259 ft | 3 kts | 317° |
| 2026-04-27 13:57 | 35.84779 | 14.49460 | 259 ft | 0 kts | 314° |
| 2026-04-27 13:59 | 35.84786 | 14.49450 | 259 ft | 3 kts | 314° |
| 2026-04-27 14:00 | 35.84804 | 14.49428 | 259 ft | 5 kts | 314° |
| 2026-04-27 14:00 | 35.84831 | 14.49394 | 259 ft | 7 kts | 314° |
| 2026-04-27 14:00 | 35.84868 | 14.49349 | 259 ft | 8 kts | 315° |
| 2026-04-27 14:00 | 35.84913 | 14.49292 | 259 ft | 10 kts | 312° |
| 2026-04-27 14:01 | 35.84936 | 14.49204 | 258 ft | 12 kts | 261° |
| 2026-04-27 14:01 | 35.84900 | 14.49131 | 259 ft | 11 kts | 259° |
| 2026-04-27 14:01 | 35.84926 | 14.49060 | 258 ft | 10 kts | 293° |
| 2026-04-27 14:01 | 35.84912 | 14.48988 | 258 ft | 0 kts | 226° |
| 2026-04-27 14:06 | 35.84909 | 14.48985 | 258 ft | 2 kts | 223° |
| 2026-04-27 14:06 | 35.84893 | 14.48975 | 258 ft | 4 kts | 200° |
| 2026-04-27 14:06 | 35.84861 | 14.48972 | 258 ft | 6 kts | 176° |
| 2026-04-27 14:07 | 35.84816 | 14.48961 | 258 ft | 8 kts | 217° |
| 2026-04-27 14:07 | 35.84790 | 14.48946 | 258 ft | 3 kts | 163° |
| 2026-04-27 14:07 | 35.84782 | 14.48954 | 259 ft | 0 kts | 138° |
| 2026-04-27 14:07 | 35.84746 | 14.48993 | 259 ft | 35 kts | 138° |
| 2026-04-27 14:08 | 35.84377 | 14.49448 | 259 ft | 111 kts | 135° |
| 2026-04-27 14:08 | 35.83706 | 14.50295 | 360 ft | 156 kts | 135° |
| 2026-04-27 14:08 | 35.82873 | 14.51173 | 1027 ft | 161 kts | 158° |
| 2026-04-27 14:08 | 35.81766 | 14.51239 | 1732 ft | 167 kts | 199° |
| 2026-04-27 14:09 | 35.80820 | 14.50412 | 2320 ft | 172 kts | 234° |
| 2026-04-27 14:09 | 35.80149 | 14.49180 | 2829 ft | 177 kts | 239° |
| 2026-04-27 14:09 | 35.79473 | 14.47841 | 3201 ft | 193 kts | 239° |
| 2026-04-27 14:09 | 35.78739 | 14.46406 | 3215 ft | 208 kts | 238° |
| 2026-04-27 14:10 | 35.77931 | 14.44837 | 3374 ft | 221 kts | 238° |
| 2026-04-27 14:10 | 35.77100 | 14.43215 | 3971 ft | 226 kts | 239° |
| 2026-04-27 14:10 | 35.76266 | 14.41561 | 4682 ft | 229 kts | 240° |
| 2026-04-27 14:10 | 35.75767 | 14.39718 | 5272 ft | 229 kts | 268° |
| 2026-04-27 14:11 | 35.76070 | 14.37809 | 5854 ft | 232 kts | 295° |
| 2026-04-27 14:11 | 35.77106 | 14.36243 | 6166 ft | 243 kts | 320° |
| 2026-04-27 14:11 | 35.78574 | 14.35175 | 6495 ft | 245 kts | 329° |
| 2026-04-27 14:11 | 35.80091 | 14.34199 | 6928 ft | 247 kts | 329° |
| 2026-04-27 14:12 | 35.81615 | 14.33210 | 7318 ft | 248 kts | 329° |
| 2026-04-27 14:12 | 35.83140 | 14.32216 | 7753 ft | 248 kts | 329° |
| 2026-04-27 14:12 | 35.84670 | 14.31209 | 8206 ft | 251 kts | 329° |
| 2026-04-27 14:12 | 35.86257 | 14.30151 | 8667 ft | 268 kts | 329° |
| 2026-04-27 14:13 | 35.87911 | 14.29035 | 9126 ft | 273 kts | 329° |
| 2026-04-27 14:13 | 35.89584 | 14.27896 | 9614 ft | 275 kts | 328° |
| 2026-04-27 14:13 | 35.91255 | 14.26750 | 10096 ft | 275 kts | 328° |
| 2026-04-27 14:13 | 35.92952 | 14.25576 | 10569 ft | 286 kts | 328° |
| 2026-04-27 14:14 | 35.94877 | 14.24661 | 10783 ft | 313 kts | 350° |
| 2026-04-27 14:14 | 35.97112 | 14.25009 | 11109 ft | 338 kts | 18° |
| 2026-04-27 14:14 | 35.99223 | 14.26399 | 11698 ft | 349 kts | 30° |
| 2026-04-27 14:14 | 36.01222 | 14.28143 | 12357 ft | 354 kts | 32° |
| 2026-04-27 14:15 | 36.03225 | 14.29938 | 13017 ft | 358 kts | 32° |
| 2026-04-27 14:15 | 36.05264 | 14.31733 | 13672 ft | 361 kts | 29° |
| 2026-04-27 14:15 | 36.07431 | 14.33314 | 14266 ft | 362 kts | 24° |
| 2026-04-27 14:15 | 36.09697 | 14.34702 | 14834 ft | 364 kts | 20° |
| 2026-04-27 14:16 | 36.12012 | 14.35999 | 15401 ft | 367 kts | 19° |
| 2026-04-27 14:16 | 36.14388 | 14.37305 | 15993 ft | 370 kts | 20° |
| 2026-04-27 14:16 | 36.16715 | 14.38606 | 16544 ft | 374 kts | 20° |
| 2026-04-27 14:16 | 36.19084 | 14.39970 | 17103 ft | 377 kts | 21° |
| 2026-04-27 14:17 | 36.21464 | 14.41378 | 17669 ft | 381 kts | 21° |
| 2026-04-27 14:17 | 36.23860 | 14.42821 | 18228 ft | 384 kts | 21° |
| 2026-04-27 14:17 | 36.26271 | 14.44286 | 18742 ft | 388 kts | 21° |
| 2026-04-27 14:17 | 36.28704 | 14.45765 | 19247 ft | 391 kts | 21° |
| 2026-04-27 14:18 | 36.31154 | 14.47249 | 19767 ft | 394 kts | 21° |
| 2026-04-27 14:18 | 36.33624 | 14.48742 | 20282 ft | 396 kts | 21° |
| 2026-04-27 14:18 | 36.36113 | 14.50246 | 20792 ft | 399 kts | 21° |
| 2026-04-27 14:18 | 36.38616 | 14.51761 | 21275 ft | 402 kts | 21° |
| 2026-04-27 14:19 | 36.41135 | 14.53284 | 21751 ft | 404 kts | 21° |
| 2026-04-27 14:19 | 36.43671 | 14.54816 | 22215 ft | 407 kts | 21° |
| 2026-04-27 14:19 | 36.46227 | 14.56360 | 22676 ft | 410 kts | 21° |
| 2026-04-27 14:19 | 36.48804 | 14.57881 | 23127 ft | 410 kts | 18° |
| 2026-04-27 14:20 | 36.51506 | 14.58980 | 23575 ft | 407 kts | 8° |
| 2026-04-27 14:20 | 36.54281 | 14.59648 | 23964 ft | 408 kts | 5° |
| 2026-04-27 14:20 | 36.57088 | 14.60290 | 24340 ft | 411 kts | 5° |
| 2026-04-27 14:20 | 36.59905 | 14.60937 | 24730 ft | 413 kts | 6° |
| 2026-04-27 14:21 | 36.62738 | 14.61592 | 25104 ft | 415 kts | 6° |
| 2026-04-27 14:21 | 36.65588 | 14.62254 | 25471 ft | 418 kts | 6° |
| 2026-04-27 14:21 | 36.68452 | 14.62916 | 25831 ft | 420 kts | 6° |
| 2026-04-27 14:21 | 36.71336 | 14.63575 | 26187 ft | 422 kts | 5° |
| 2026-04-27 14:22 | 36.74235 | 14.64236 | 26535 ft | 425 kts | 6° |
| 2026-04-27 14:22 | 36.77151 | 14.64906 | 26879 ft | 427 kts | 6° |
| 2026-04-27 14:22 | 36.80085 | 14.65586 | 27225 ft | 430 kts | 6° |
| 2026-04-27 14:22 | 36.83032 | 14.66269 | 27599 ft | 432 kts | 6° |
| 2026-04-27 14:23 | 36.85998 | 14.66950 | 27962 ft | 435 kts | 6° |
| 2026-04-27 14:23 | 36.88980 | 14.67630 | 28335 ft | 437 kts | 6° |
| 2026-04-27 14:23 | 36.91978 | 14.68313 | 28696 ft | 439 kts | 6° |
| 2026-04-27 14:23 | 36.94992 | 14.68997 | 29041 ft | 442 kts | 6° |
| 2026-04-27 14:24 | 36.98025 | 14.69680 | 29385 ft | 444 kts | 5° |
| 2026-04-27 14:24 | 37.01071 | 14.70365 | 29732 ft | 446 kts | 5° |
| 2026-04-27 14:24 | 37.04135 | 14.71055 | 30104 ft | 448 kts | 6° |
| 2026-04-27 14:24 | 37.07198 | 14.71751 | 30557 ft | 446 kts | 6° |
| 2026-04-27 14:25 | 37.10250 | 14.72451 | 30991 ft | 445 kts | 6° |
| 2026-04-27 14:25 | 37.13293 | 14.73148 | 31410 ft | 444 kts | 6° |
| 2026-04-27 14:25 | 37.16330 | 14.73845 | 31840 ft | 443 kts | 6° |
| 2026-04-27 14:25 | 37.19364 | 14.74543 | 32243 ft | 443 kts | 6° |
| 2026-04-27 14:26 | 37.22390 | 14.75240 | 32662 ft | 442 kts | 6° |
| 2026-04-27 14:26 | 37.25419 | 14.75890 | 33070 ft | 440 kts | 4° |
| 2026-04-27 14:26 | 37.28448 | 14.76393 | 33475 ft | 439 kts | 2° |
| 2026-04-27 14:26 | 37.31477 | 14.76794 | 33915 ft | 437 kts | 1° |
| 2026-04-27 14:27 | 37.34504 | 14.77147 | 34288 ft | 436 kts | 1° |
| 2026-04-27 14:27 | 37.37525 | 14.77493 | 34623 ft | 436 kts | 1° |
| 2026-04-27 14:27 | 37.40541 | 14.77858 | 34942 ft | 436 kts | 1° |
| 2026-04-27 14:27 | 37.43555 | 14.78249 | 35259 ft | 435 kts | 1° |
| 2026-04-27 14:28 | 37.46565 | 14.78660 | 35568 ft | 435 kts | 1° |
| 2026-04-27 14:28 | 37.49571 | 14.79083 | 35867 ft | 435 kts | 1° |
| 2026-04-27 14:28 | 37.52582 | 14.79507 | 36045 ft | 436 kts | 1° |
| 2026-04-27 14:29 | 37.58670 | 14.80355 | 36082 ft | 443 kts | 1° |
| 2026-04-27 14:29 | 37.64809 | 14.81211 | 36086 ft | 444 kts | 1° |
| 2026-04-27 14:30 | 37.70951 | 14.82067 | 36093 ft | 444 kts | 1° |
| 2026-04-27 14:30 | 37.77102 | 14.82921 | 36103 ft | 445 kts | 2° |
| 2026-04-27 14:31 | 37.83259 | 14.83773 | 36104 ft | 445 kts | 2° |
| 2026-04-27 14:31 | 37.89375 | 14.84624 | 36101 ft | 445 kts | 2° |
| 2026-04-27 14:32 | 37.95535 | 14.85487 | 36113 ft | 445 kts | 2° |
| 2026-04-27 14:32 | 38.01695 | 14.86345 | 36120 ft | 445 kts | 2° |
| 2026-04-27 14:33 | 38.07852 | 14.87212 | 36123 ft | 445 kts | 2° |
| 2026-04-27 14:33 | 38.14002 | 14.88072 | 36127 ft | 445 kts | 2° |
| 2026-04-27 14:34 | 38.20154 | 14.88928 | 36146 ft | 445 kts | 2° |
| 2026-04-27 14:34 | 38.26305 | 14.89804 | 36141 ft | 445 kts | 2° |
| 2026-04-27 14:35 | 38.32458 | 14.90688 | 36134 ft | 445 kts | 2° |
| 2026-04-27 14:35 | 38.38608 | 14.91554 | 36131 ft | 445 kts | 2° |
| 2026-04-27 14:36 | 38.44759 | 14.92421 | 36139 ft | 445 kts | 2° |
| 2026-04-27 14:36 | 38.50909 | 14.93283 | 36136 ft | 445 kts | 2° |
| 2026-04-27 14:37 | 38.57056 | 14.94153 | 36133 ft | 444 kts | 3° |
| 2026-04-27 14:37 | 38.63200 | 14.95034 | 36141 ft | 444 kts | 3° |
| 2026-04-27 14:38 | 38.69346 | 14.95907 | 36136 ft | 444 kts | 3° |
| 2026-04-27 14:38 | 38.75487 | 14.96788 | 36135 ft | 444 kts | 3° |
| 2026-04-27 14:39 | 38.81626 | 14.97666 | 36133 ft | 444 kts | 3° |
| 2026-04-27 14:39 | 38.87762 | 14.98543 | 36140 ft | 444 kts | 4° |
| 2026-04-27 14:40 | 38.93899 | 14.99416 | 36134 ft | 444 kts | 4° |
| 2026-04-27 14:40 | 38.99988 | 15.00305 | 36131 ft | 443 kts | 4° |
| 2026-04-27 14:41 | 39.06119 | 15.01189 | 36139 ft | 443 kts | 4° |
| 2026-04-27 14:41 | 39.12254 | 15.02064 | 36135 ft | 443 kts | 4° |
| 2026-04-27 14:42 | 39.18386 | 15.02961 | 36131 ft | 444 kts | 4° |
| 2026-04-27 14:42 | 39.24518 | 15.03848 | 36130 ft | 443 kts | 4° |
| 2026-04-27 14:43 | 39.30654 | 15.04721 | 36141 ft | 443 kts | 4° |
| 2026-04-27 14:43 | 39.36784 | 15.05617 | 36140 ft | 443 kts | 4° |
| 2026-04-27 14:44 | 39.42911 | 15.06514 | 36135 ft | 443 kts | 4° |
| 2026-04-27 14:44 | 39.49033 | 15.07415 | 36144 ft | 443 kts | 4° |
| 2026-04-27 14:45 | 39.55152 | 15.08315 | 36139 ft | 443 kts | 4° |
| 2026-04-27 14:45 | 39.61274 | 15.09202 | 36138 ft | 442 kts | 4° |
| 2026-04-27 14:46 | 39.67389 | 15.10095 | 36137 ft | 442 kts | 4° |
| 2026-04-27 14:46 | 39.73506 | 15.10985 | 36137 ft | 442 kts | 4° |
| 2026-04-27 14:47 | 39.79622 | 15.11889 | 36134 ft | 442 kts | 4° |
| 2026-04-27 14:47 | 39.85740 | 15.12795 | 36135 ft | 442 kts | 4° |
| 2026-04-27 14:48 | 39.91856 | 15.13699 | 36147 ft | 442 kts | 4° |
| 2026-04-27 14:48 | 40.01032 | 15.15051 | 36141 ft | 442 kts | 4° |
| 2026-04-27 14:49 | 40.06111 | 15.15803 | 36141 ft | 442 kts | 4° |
| 2026-04-27 14:49 | 40.12221 | 15.16718 | 36139 ft | 442 kts | 4° |
| 2026-04-27 14:50 | 40.18333 | 15.17630 | 36141 ft | 442 kts | 4° |
| 2026-04-27 14:50 | 40.24442 | 15.18530 | 36140 ft | 442 kts | 4° |
| 2026-04-27 14:51 | 40.30546 | 15.19442 | 36141 ft | 442 kts | 4° |
| 2026-04-27 14:51 | 40.36651 | 15.20361 | 36146 ft | 442 kts | 4° |
| 2026-04-27 14:52 | 40.42753 | 15.21295 | 36146 ft | 442 kts | 5° |
| 2026-04-27 14:52 | 40.48831 | 15.22542 | 36139 ft | 443 kts | 7° |
| 2026-04-27 14:53 | 40.54891 | 15.24031 | 36141 ft | 443 kts | 7° |
| 2026-04-27 14:53 | 40.60951 | 15.25491 | 36138 ft | 442 kts | 7° |
| 2026-04-27 14:54 | 40.67018 | 15.26873 | 36132 ft | 442 kts | 6° |
| 2026-04-27 14:54 | 40.73087 | 15.28239 | 36131 ft | 442 kts | 7° |
| 2026-04-27 14:55 | 40.79149 | 15.29622 | 36147 ft | 442 kts | 6° |
| 2026-04-27 14:55 | 40.85207 | 15.31009 | 36129 ft | 442 kts | 6° |
| 2026-04-27 14:56 | 40.91259 | 15.32403 | 36135 ft | 441 kts | 6° |
| 2026-04-27 14:56 | 40.97304 | 15.33802 | 36142 ft | 441 kts | 6° |
| 2026-04-27 14:57 | 41.03310 | 15.35192 | 36132 ft | 441 kts | 6° |
| 2026-04-27 14:57 | 41.09348 | 15.36593 | 36124 ft | 440 kts | 6° |
| 2026-04-27 14:58 | 41.15381 | 15.37993 | 36119 ft | 440 kts | 6° |
| 2026-04-27 14:58 | 41.21419 | 15.39388 | 36117 ft | 440 kts | 6° |
| 2026-04-27 14:59 | 41.27448 | 15.40775 | 36112 ft | 440 kts | 6° |
| 2026-04-27 14:59 | 41.33475 | 15.42183 | 36106 ft | 440 kts | 6° |
| 2026-04-27 15:00 | 41.39497 | 15.43595 | 36111 ft | 439 kts | 6° |
| 2026-04-27 15:00 | 41.45509 | 15.45004 | 36109 ft | 438 kts | 6° |
| 2026-04-27 15:01 | 41.51510 | 15.46408 | 36114 ft | 438 kts | 6° |
| 2026-04-27 15:01 | 41.57506 | 15.47810 | 36119 ft | 437 kts | 6° |
| 2026-04-27 15:02 | 41.63494 | 15.49221 | 36117 ft | 437 kts | 6° |
| 2026-04-27 15:02 | 41.69474 | 15.50635 | 36115 ft | 436 kts | 6° |
| 2026-04-27 15:03 | 41.75448 | 15.52051 | 36111 ft | 436 kts | 6° |
| 2026-04-27 15:03 | 41.81420 | 15.53459 | 36123 ft | 436 kts | 6° |
| 2026-04-27 15:04 | 41.87386 | 15.54871 | 36126 ft | 435 kts | 6° |
| 2026-04-27 15:04 | 41.93349 | 15.56288 | 36123 ft | 435 kts | 6° |
| 2026-04-27 15:05 | 41.99308 | 15.57714 | 36130 ft | 435 kts | 7° |
| 2026-04-27 15:05 | 42.05265 | 15.59133 | 36125 ft | 435 kts | 7° |
| 2026-04-27 15:06 | 42.11218 | 15.60548 | 36119 ft | 434 kts | 7° |
| 2026-04-27 15:06 | 42.17169 | 15.61969 | 36121 ft | 434 kts | 7° |
| 2026-04-27 15:07 | 42.23115 | 15.63399 | 36113 ft | 434 kts | 7° |
| 2026-04-27 15:07 | 42.29061 | 15.64821 | 36120 ft | 434 kts | 7° |
| 2026-04-27 15:08 | 42.35006 | 15.66258 | 36119 ft | 434 kts | 7° |
| 2026-04-27 15:08 | 42.40948 | 15.67692 | 36116 ft | 433 kts | 7° |
| 2026-04-27 15:09 | 42.46884 | 15.69117 | 36113 ft | 433 kts | 7° |
| 2026-04-27 15:09 | 42.52816 | 15.70548 | 35880 ft | 433 kts | 7° |
| 2026-04-27 15:10 | 42.55735 | 15.71255 | 35637 ft | 432 kts | 7° |
| 2026-04-27 15:10 | 42.58691 | 15.71976 | 35387 ft | 432 kts | 7° |
| 2026-04-27 15:10 | 42.61648 | 15.72702 | 35157 ft | 431 kts | 7° |
| 2026-04-27 15:10 | 42.64636 | 15.73483 | 35070 ft | 432 kts | 12° |
| 2026-04-27 15:11 | 42.70169 | 15.76770 | 35095 ft | 440 kts | 31° |
| 2026-04-27 15:11 | 42.74640 | 15.82509 | 35096 ft | 447 kts | 50° |
| 2026-04-27 15:12 | 42.78367 | 15.89284 | 35095 ft | 447 kts | 50° |
| 2026-04-27 15:12 | 42.82105 | 15.96057 | 35095 ft | 447 kts | 50° |
| 2026-04-27 15:13 | 42.85835 | 16.02839 | 35097 ft | 448 kts | 50° |
| 2026-04-27 15:13 | 42.89569 | 16.09643 | 35105 ft | 448 kts | 50° |
| 2026-04-27 15:14 | 42.93285 | 16.16434 | 35094 ft | 446 kts | 50° |
| 2026-04-27 15:14 | 42.96990 | 16.23225 | 35097 ft | 446 kts | 50° |
| 2026-04-27 15:15 | 43.00689 | 16.30022 | 35099 ft | 446 kts | 50° |
| 2026-04-27 15:15 | 43.04361 | 16.36781 | 35109 ft | 446 kts | 50° |
| 2026-04-27 15:16 | 43.08049 | 16.43598 | 35090 ft | 445 kts | 50° |
| 2026-04-27 15:16 | 43.11728 | 16.50415 | 35100 ft | 445 kts | 50° |
| 2026-04-27 15:17 | 43.15407 | 16.57236 | 35103 ft | 445 kts | 50° |
| 2026-04-27 15:17 | 43.19080 | 16.64067 | 35091 ft | 445 kts | 50° |
| 2026-04-27 15:18 | 43.22747 | 16.70899 | 35106 ft | 444 kts | 50° |
| 2026-04-27 15:18 | 43.26411 | 16.77734 | 35094 ft | 445 kts | 50° |
| 2026-04-27 15:19 | 43.30073 | 16.84585 | 35099 ft | 445 kts | 50° |
| 2026-04-27 15:19 | 43.33724 | 16.91449 | 35097 ft | 445 kts | 50° |
| 2026-04-27 15:20 | 43.37369 | 16.98307 | 35101 ft | 443 kts | 50° |
| 2026-04-27 15:20 | 43.40999 | 17.05155 | 35114 ft | 443 kts | 50° |
| 2026-04-27 15:21 | 43.44640 | 17.12018 | 35104 ft | 445 kts | 50° |
| 2026-04-27 15:21 | 43.48283 | 17.18901 | 35106 ft | 445 kts | 50° |
| 2026-04-27 15:22 | 43.51988 | 17.25725 | 35105 ft | 444 kts | 49° |
| 2026-04-27 15:22 | 43.55741 | 17.32487 | 35108 ft | 444 kts | 49° |
| 2026-04-27 15:23 | 43.59473 | 17.39274 | 35103 ft | 444 kts | 49° |
| 2026-04-27 15:23 | 43.63199 | 17.46105 | 35102 ft | 446 kts | 50° |
| 2026-04-27 15:24 | 43.66923 | 17.52950 | 35099 ft | 445 kts | 50° |
| 2026-04-27 15:24 | 43.70631 | 17.59782 | 35106 ft | 444 kts | 50° |
| 2026-04-27 15:25 | 43.74339 | 17.66619 | 35104 ft | 445 kts | 50° |
| 2026-04-27 15:25 | 43.78045 | 17.73466 | 35099 ft | 445 kts | 50° |
| 2026-04-27 15:26 | 43.81746 | 17.80321 | 35097 ft | 445 kts | 50° |
| 2026-04-27 15:26 | 43.85438 | 17.87186 | 35093 ft | 444 kts | 50° |
| 2026-04-27 15:27 | 43.89124 | 17.94056 | 35094 ft | 445 kts | 50° |
| 2026-04-27 15:27 | 43.92829 | 18.00951 | 34825 ft | 448 kts | 50° |
| 2026-04-27 15:28 | 43.94684 | 18.04413 | 34357 ft | 446 kts | 50° |
| 2026-04-27 15:28 | 43.96529 | 18.07873 | 33835 ft | 445 kts | 50° |
| 2026-04-27 15:28 | 43.98362 | 18.11317 | 33293 ft | 443 kts | 50° |
| 2026-04-27 15:28 | 44.00185 | 18.14746 | 32758 ft | 440 kts | 50° |
| 2026-04-27 15:29 | 44.01995 | 18.18152 | 32228 ft | 436 kts | 50° |
| 2026-04-27 15:29 | 44.03790 | 18.21528 | 31713 ft | 433 kts | 50° |
| 2026-04-27 15:29 | 44.05572 | 18.24881 | 31203 ft | 430 kts | 50° |
| 2026-04-27 15:29 | 44.07342 | 18.28210 | 30718 ft | 426 kts | 50° |
| 2026-04-27 15:30 | 44.09095 | 18.31512 | 30232 ft | 423 kts | 50° |
| 2026-04-27 15:30 | 44.10836 | 18.34797 | 29681 ft | 420 kts | 50° |
| 2026-04-27 15:30 | 44.12563 | 18.38060 | 29121 ft | 417 kts | 50° |
| 2026-04-27 15:30 | 44.14272 | 18.41300 | 28571 ft | 414 kts | 50° |
| 2026-04-27 15:31 | 44.15967 | 18.44519 | 28028 ft | 411 kts | 50° |
| 2026-04-27 15:31 | 44.17649 | 18.47717 | 27492 ft | 408 kts | 50° |
| 2026-04-27 15:31 | 44.19322 | 18.50893 | 26984 ft | 405 kts | 50° |
| 2026-04-27 15:31 | 44.20981 | 18.54040 | 26534 ft | 402 kts | 50° |
| 2026-04-27 15:32 | 44.22630 | 18.57173 | 26035 ft | 400 kts | 50° |
| 2026-04-27 15:32 | 44.24264 | 18.60287 | 25621 ft | 396 kts | 50° |
| 2026-04-27 15:32 | 44.25879 | 18.63375 | 25212 ft | 392 kts | 50° |
| 2026-04-27 15:32 | 44.27483 | 18.66440 | 24791 ft | 390 kts | 50° |
| 2026-04-27 15:33 | 44.29097 | 18.69516 | 24123 ft | 395 kts | 50° |
| 2026-04-27 15:33 | 44.30172 | 18.71568 | 23768 ft | 396 kts | 50° |
| 2026-04-27 15:33 | 44.31792 | 18.74673 | 23203 ft | 395 kts | 51° |
| 2026-04-27 15:33 | 44.33400 | 18.77765 | 22666 ft | 392 kts | 51° |
| 2026-04-27 15:34 | 44.34997 | 18.80836 | 22135 ft | 390 kts | 51° |
| 2026-04-27 15:34 | 44.36584 | 18.83891 | 21641 ft | 387 kts | 51° |
| 2026-04-27 15:34 | 44.38158 | 18.86921 | 21137 ft | 384 kts | 51° |
| 2026-04-27 15:34 | 44.39721 | 18.89934 | 20669 ft | 381 kts | 51° |
| 2026-04-27 15:35 | 44.41273 | 18.92924 | 20185 ft | 378 kts | 51° |
| 2026-04-27 15:35 | 44.42810 | 18.95891 | 19722 ft | 376 kts | 51° |
| 2026-04-27 15:35 | 44.44336 | 18.98840 | 19244 ft | 373 kts | 51° |
| 2026-04-27 15:35 | 44.45852 | 19.01772 | 18775 ft | 370 kts | 51° |
| 2026-04-27 15:36 | 44.47356 | 19.04678 | 18296 ft | 368 kts | 51° |
| 2026-04-27 15:36 | 44.48855 | 19.07575 | 17774 ft | 366 kts | 51° |
| 2026-04-27 15:36 | 44.50340 | 19.10448 | 17267 ft | 363 kts | 51° |
| 2026-04-27 15:36 | 44.51814 | 19.13312 | 16759 ft | 361 kts | 51° |
| 2026-04-27 15:37 | 44.53279 | 19.16159 | 16258 ft | 359 kts | 51° |
| 2026-04-27 15:37 | 44.54732 | 19.18989 | 15782 ft | 356 kts | 51° |
| 2026-04-27 15:37 | 44.56176 | 19.21799 | 15296 ft | 354 kts | 51° |
| 2026-04-27 15:37 | 44.57613 | 19.24596 | 14819 ft | 352 kts | 51° |
| 2026-04-27 15:38 | 44.59040 | 19.27377 | 14368 ft | 350 kts | 51° |
| 2026-04-27 15:38 | 44.60458 | 19.30146 | 13905 ft | 348 kts | 51° |
| 2026-04-27 15:38 | 44.61836 | 19.32845 | 13648 ft | 340 kts | 51° |
| 2026-04-27 15:38 | 44.63201 | 19.35523 | 13300 ft | 335 kts | 51° |
| 2026-04-27 15:39 | 44.64552 | 19.38174 | 12893 ft | 332 kts | 51° |
| 2026-04-27 15:39 | 44.65896 | 19.40805 | 12489 ft | 331 kts | 51° |
| 2026-04-27 15:39 | 44.67234 | 19.43423 | 12086 ft | 329 kts | 51° |
| 2026-04-27 15:39 | 44.68563 | 19.46029 | 11689 ft | 327 kts | 51° |
| 2026-04-27 15:40 | 44.69882 | 19.48622 | 11304 ft | 325 kts | 51° |
| 2026-04-27 15:40 | 44.71193 | 19.51208 | 10918 ft | 324 kts | 51° |
| 2026-04-27 15:40 | 44.72497 | 19.53779 | 10540 ft | 322 kts | 51° |
| 2026-04-27 15:40 | 44.73797 | 19.56340 | 10169 ft | 321 kts | 51° |
| 2026-04-27 15:41 | 44.75092 | 19.58889 | 9762 ft | 320 kts | 51° |
| 2026-04-27 15:41 | 44.76366 | 19.61398 | 9596 ft | 310 kts | 51° |
| 2026-04-27 15:41 | 44.77597 | 19.63832 | 9463 ft | 300 kts | 51° |
| 2026-04-27 15:41 | 44.78797 | 19.66209 | 9196 ft | 296 kts | 51° |
| 2026-04-27 15:42 | 44.79987 | 19.68567 | 8879 ft | 295 kts | 51° |
| 2026-04-27 15:42 | 44.81171 | 19.70914 | 8541 ft | 294 kts | 52° |
| 2026-04-27 15:42 | 44.82353 | 19.73256 | 8210 ft | 292 kts | 52° |
| 2026-04-27 15:42 | 44.83527 | 19.75588 | 7898 ft | 291 kts | 52° |
| 2026-04-27 15:43 | 44.84699 | 19.77912 | 7588 ft | 290 kts | 51° |
| 2026-04-27 15:43 | 44.85864 | 19.80225 | 7273 ft | 289 kts | 51° |
| 2026-04-27 15:43 | 44.87010 | 19.82501 | 6966 ft | 288 kts | 52° |
| 2026-04-27 15:43 | 44.88170 | 19.84800 | 6657 ft | 287 kts | 52° |
| 2026-04-27 15:44 | 44.89324 | 19.87094 | 6341 ft | 286 kts | 52° |
| 2026-04-27 15:44 | 44.90468 | 19.89375 | 6050 ft | 284 kts | 52° |
| 2026-04-27 15:44 | 44.91600 | 19.91637 | 5834 ft | 278 kts | 52° |
| 2026-04-27 15:44 | 44.92698 | 19.93836 | 5707 ft | 270 kts | 52° |
| 2026-04-27 15:45 | 44.93763 | 19.95970 | 5582 ft | 262 kts | 52° |
| 2026-04-27 15:45 | 44.94703 | 19.98119 | 5447 ft | 255 kts | 68° |
| 2026-04-27 15:45 | 44.94893 | 20.00546 | 5333 ft | 248 kts | 99° |
| 2026-04-27 15:45 | 44.94256 | 20.02739 | 5192 ft | 240 kts | 122° |
| 2026-04-27 15:46 | 44.93369 | 20.04785 | 4624 ft | 251 kts | 122° |
| 2026-04-27 15:46 | 44.92435 | 20.06910 | 4006 ft | 255 kts | 121° |
| 2026-04-27 15:46 | 44.91517 | 20.08997 | 3627 ft | 246 kts | 121° |
| 2026-04-27 15:46 | 44.90633 | 20.11005 | 3308 ft | 236 kts | 121° |
| 2026-04-27 15:47 | 44.89788 | 20.12927 | 2989 ft | 225 kts | 121° |
| 2026-04-27 15:47 | 44.88980 | 20.14761 | 2708 ft | 213 kts | 121° |
| 2026-04-27 15:47 | 44.88232 | 20.16459 | 2433 ft | 198 kts | 121° |
| 2026-04-27 15:47 | 44.87522 | 20.18068 | 2182 ft | 186 kts | 121° |
| 2026-04-27 15:48 | 44.86876 | 20.19533 | 1926 ft | 167 kts | 121° |
| 2026-04-27 15:48 | 44.86290 | 20.20860 | 1720 ft | 153 kts | 121° |
| 2026-04-27 15:48 | 44.85745 | 20.22096 | 1509 ft | 146 kts | 120° |
| 2026-04-27 15:49 | 44.84683 | 20.24500 | 1128 ft | 144 kts | 120° |
| 2026-04-27 15:49 | 44.84150 | 20.25706 | 943 ft | 146 kts | 121° |
| 2026-04-27 15:49 | 44.83622 | 20.26898 | 754 ft | 141 kts | 121° |
| 2026-04-27 15:49 | 44.83108 | 20.28060 | 563 ft | 139 kts | 119° |
| 2026-04-27 15:50 | 44.82600 | 20.29214 | 362 ft | 138 kts | 120° |
| 2026-04-27 15:50 | 44.82138 | 20.30256 | 321 ft | 105 kts | 121° |
| 2026-04-27 15:50 | 44.81843 | 20.30923 | 326 ft | 61 kts | 122° |
| 2026-04-27 15:50 | 44.81620 | 20.31302 | 324 ft | 42 kts | 149° |
| 2026-04-27 15:51 | 44.81457 | 20.31382 | 324 ft | 11 kts | 234° |
| 2026-04-27 15:51 | 44.81477 | 20.31295 | 322 ft | 11 kts | 302° |
| 2026-04-27 15:51 | 44.81522 | 20.31191 | 322 ft | 14 kts | 302° |
| 2026-04-27 15:51 | 44.81575 | 20.31071 | 324 ft | 16 kts | 302° |
| 2026-04-27 15:52 | 44.81639 | 20.30931 | 323 ft | 18 kts | 302° |
| 2026-04-27 15:52 | 44.81708 | 20.30775 | 325 ft | 20 kts | 303° |
| 2026-04-27 15:52 | 44.81785 | 20.30601 | 326 ft | 22 kts | 301° |
| 2026-04-27 15:52 | 44.81870 | 20.30407 | 326 ft | 25 kts | 302° |
| 2026-04-27 15:53 | 44.81968 | 20.30190 | 325 ft | 27 kts | 301° |
| 2026-04-27 15:53 | 44.82071 | 20.29955 | 325 ft | 23 kts | 302° |
| 2026-04-27 15:53 | 44.82151 | 20.29771 | 326 ft | 7 kts | 302° |
| 2026-04-27 15:53 | 44.82159 | 20.29697 | 325 ft | 9 kts | 242° |
| 2026-04-27 15:54 | 44.82110 | 20.29638 | 326 ft | 10 kts | 245° |
| 2026-04-27 15:54 | 44.82105 | 20.29538 | 327 ft | 12 kts | 236° |
| 2026-04-27 15:54 | 44.82030 | 20.29466 | 326 ft | 15 kts | 211° |
| 2026-04-27 15:54 | 44.81997 | 20.29436 | 326 ft | 4 kts | 217° |
| 2026-04-27 15:55 | 44.81995 | 20.29395 | 326 ft | 5 kts | 292° |
| 2026-04-27 15:55 | 44.82010 | 20.29361 | 326 ft | 7 kts | 302° |
| 2026-04-27 15:55 | 44.82016 | 20.29348 | 326 ft | 0 kts | 302° |